createdAt,value
2023-10-05T00:02:11.024Z,13.10
2023-10-05T00:04:42.492Z,13.70
2023-10-05T00:07:20.559Z,11.20
2023-10-05T00:09:47.891Z,10.20
2023-10-05T00:12:32.569Z,10.00
2023-10-05T00:15:14.495Z,11.50
2023-10-05T00:17:41.908Z,11.00
2023-10-05T00:20:12.025Z,8.30
2023-10-05T00:22:41.069Z,10.20
2023-10-05T00:25:11.059Z,9.80
2023-10-05T00:27:38.429Z,9.40
2023-10-05T00:30:07.329Z,10.30
2023-10-05T00:32:40.695Z,11.40
2023-10-05T00:35:29.778Z,11.70
2023-10-05T00:38:13.660Z,11.00
2023-10-05T00:40:44.138Z,11.60
2023-10-05T00:43:18.318Z,9.60
2023-10-05T00:45:47.775Z,12.50
2023-10-05T00:48:28.455Z,12.60
2023-10-05T00:51:04.714Z,12.90
2023-10-05T00:53:32.494Z,12.00
2023-10-05T00:56:09.229Z,12.80
2023-10-05T00:58:45.328Z,15.10
2023-10-05T01:01:28.767Z,13.20
2023-10-05T01:04:03.278Z,9.50
2023-10-05T01:06:43.098Z,11.00
2023-10-05T01:09:33.529Z,10.00
2023-10-05T01:12:17.060Z,9.90
2023-10-05T01:14:52.229Z,9.50
2023-10-05T01:17:21.552Z,8.60
2023-10-05T01:19:57.332Z,8.90
2023-10-05T01:22:25.155Z,10.40
2023-10-05T01:24:52.936Z,7.90
2023-10-05T01:27:22.164Z,8.40
2023-10-05T01:29:50.334Z,9.20
2023-10-05T01:32:17.398Z,8.80
2023-10-05T01:34:49.972Z,13.10
2023-10-05T01:37:19.176Z,12.90
2023-10-05T01:39:46.622Z,11.30
2023-10-05T01:42:15.094Z,10.00
2023-10-05T01:44:42.244Z,14.50
2023-10-05T01:47:09.044Z,9.60
2023-10-05T01:49:36.129Z,11.60
2023-10-05T01:52:03.841Z,9.80
2023-10-05T01:54:33.699Z,9.30
2023-10-05T01:57:05.253Z,13.30
2023-10-05T01:59:34.864Z,8.70
2023-10-05T02:02:02.658Z,10.20
2023-10-05T02:04:31.392Z,10.50
2023-10-05T02:06:58.485Z,12.60
2023-10-05T02:09:25.426Z,9.90
2023-10-05T02:11:53.298Z,9.00
2023-10-05T02:14:22.626Z,12.00
2023-10-05T02:16:51.613Z,10.60
2023-10-05T02:19:19.969Z,10.80
2023-10-05T02:21:46.937Z,8.30
2023-10-05T02:24:22.625Z,7.10
2023-10-05T02:26:59.913Z,8.40
2023-10-05T02:29:32.378Z,8.10
2023-10-05T02:32:02.688Z,7.60
2023-10-05T02:34:51.558Z,8.70
2023-10-05T02:37:20.551Z,7.70
2023-10-05T02:39:49.435Z,6.90
2023-10-05T02:42:21.908Z,7.50
2023-10-05T02:44:50.699Z,7.60
2023-10-05T02:47:23.803Z,6.30
2023-10-05T02:49:51.557Z,6.30
2023-10-05T02:52:19.048Z,5.20
2023-10-05T02:54:48.672Z,7.20
2023-10-05T02:57:17.301Z,8.90
2023-10-05T02:59:44.249Z,7.20
2023-10-05T03:02:15.192Z,9.40
2023-10-05T03:04:45.663Z,5.50
2023-10-05T03:07:17.906Z,8.70
2023-10-05T03:09:49.721Z,8.10
2023-10-05T03:12:21.098Z,7.50
2023-10-05T03:14:51.185Z,7.60
2023-10-05T03:17:22.631Z,4.90
2023-10-05T03:19:53.396Z,4.30
2023-10-05T03:22:24.902Z,3.90
2023-10-05T03:24:54.775Z,4.30
2023-10-05T03:27:23.235Z,4.90
2023-10-05T03:30:07.297Z,4.20
2023-10-05T03:32:36.606Z,4.30
2023-10-05T03:35:05.124Z,4.80
2023-10-05T03:37:32.882Z,3.80
2023-10-05T03:40:02.977Z,4.80
2023-10-05T03:42:30.920Z,4.50
2023-10-05T03:45:04.555Z,6.10
2023-10-05T03:47:38.419Z,6.40
2023-10-05T03:50:09.182Z,6.80
2023-10-05T03:52:36.635Z,4.50
2023-10-05T03:55:11.166Z,6.20
2023-10-05T03:57:44.939Z,5.50
2023-10-05T04:00:32.498Z,4.20
2023-10-05T04:02:59.638Z,4.30
2023-10-05T04:05:26.986Z,4.10
2023-10-05T04:07:55.950Z,10.60
2023-10-05T04:10:35.036Z,4.60
2023-10-05T04:13:01.927Z,3.90
2023-10-05T04:15:30.113Z,6.20
2023-10-05T04:17:57.101Z,5.30
2023-10-05T04:20:30.135Z,3.80
2023-10-05T04:22:57.484Z,3.50
2023-10-05T04:25:24.872Z,11.60
2023-10-05T04:27:53.546Z,4.40
2023-10-05T04:30:22.192Z,14.80
2023-10-05T04:32:49.582Z,4.70
2023-10-05T04:35:29.261Z,4.30
2023-10-05T04:37:57.701Z,4.20
2023-10-05T04:40:25.709Z,7.90
2023-10-05T04:42:53.035Z,4.30
2023-10-05T04:45:24.164Z,4.50
2023-10-05T04:47:59.266Z,5.80
2023-10-05T04:50:28.289Z,4.90
2023-10-05T04:52:55.904Z,5.10
2023-10-05T04:55:32.643Z,4.30
2023-10-05T04:58:18.241Z,4.90
2023-10-05T05:00:46.721Z,7.00
2023-10-05T05:03:26.991Z,3.80
2023-10-05T05:06:01.788Z,6.40
2023-10-05T05:08:35.700Z,5.70
2023-10-05T05:11:09.592Z,4.70
2023-10-05T05:13:37.175Z,11.30
2023-10-05T05:16:06.009Z,5.10
2023-10-05T05:18:33.587Z,5.30
2023-10-05T05:21:01.170Z,5.10
2023-10-05T05:23:29.299Z,7.30
2023-10-05T05:25:56.529Z,5.30
2023-10-05T05:28:23.855Z,4.40
2023-10-05T05:30:51.524Z,4.60
2023-10-05T05:33:18.769Z,4.30
2023-10-05T05:35:46.891Z,5.40
2023-10-05T05:38:13.774Z,6.40
2023-10-05T05:40:40.941Z,4.80
2023-10-05T05:43:09.631Z,4.00
2023-10-05T05:45:39.924Z,4.20
2023-10-05T05:48:09.962Z,8.20
2023-10-05T05:50:40.062Z,4.70
2023-10-05T05:53:11.825Z,6.80
2023-10-05T05:55:45.557Z,3.30
2023-10-05T05:58:17.521Z,6.40
2023-10-05T06:03:14.930Z,3.30
2023-10-05T06:05:41.900Z,3.20
2023-10-05T06:08:10.510Z,3.00
2023-10-05T06:10:38.166Z,4.30
2023-10-05T06:13:12.380Z,4.10
2023-10-05T06:15:39.942Z,3.20
2023-10-05T06:18:08.012Z,6.80
2023-10-05T06:20:36.074Z,5.10
2023-10-05T06:23:03.618Z,4.20
2023-10-05T06:25:31.824Z,4.20
2023-10-05T06:27:59.815Z,4.20
2023-10-05T06:30:26.745Z,5.30
2023-10-05T06:32:54.956Z,4.40
2023-10-05T06:35:22.411Z,3.50
2023-10-05T06:37:49.715Z,6.80
2023-10-05T06:40:22.097Z,5.10
2023-10-05T06:42:52.145Z,3.50
2023-10-05T06:45:24.179Z,3.50
2023-10-05T06:47:51.715Z,4.20
2023-10-05T06:50:18.657Z,5.10
2023-10-05T06:52:47.318Z,6.20
2023-10-05T06:55:15.149Z,4.80
2023-10-05T06:57:45.083Z,6.00
2023-10-05T07:00:17.278Z,4.50
2023-10-05T07:02:45.459Z,3.40
2023-10-05T07:05:12.699Z,3.60
2023-10-05T07:07:41.420Z,2.70
2023-10-05T07:10:15.753Z,8.10
2023-10-05T07:12:47.053Z,4.40
2023-10-05T07:15:14.761Z,4.70
2023-10-05T07:17:42.041Z,2.80
2023-10-05T07:20:12.483Z,4.90
2023-10-05T07:22:40.686Z,4.80
2023-10-05T07:25:17.752Z,7.60
2023-10-05T07:27:46.542Z,4.00
2023-10-05T07:30:14.033Z,6.30
2023-10-05T07:32:41.491Z,4.90
2023-10-05T07:35:09.115Z,4.10
2023-10-05T07:37:36.363Z,3.60
2023-10-05T07:40:09.927Z,4.10
2023-10-05T07:42:38.206Z,3.40
2023-10-05T07:45:08.611Z,5.00
2023-10-05T07:47:45.336Z,4.00
2023-10-05T07:50:12.480Z,5.30
2023-10-05T07:52:40.718Z,4.30
2023-10-05T07:55:08.837Z,4.60
2023-10-05T07:57:35.631Z,2.90
2023-10-05T08:00:04.504Z,3.50
2023-10-05T08:02:39.497Z,4.20
2023-10-05T08:05:06.830Z,3.80
2023-10-05T08:07:33.891Z,4.30
2023-10-05T08:10:00.982Z,4.60
2023-10-05T08:12:30.642Z,5.40
2023-10-05T08:14:57.483Z,3.90
2023-10-05T08:17:24.689Z,6.00
2023-10-05T08:19:51.470Z,4.30
2023-10-05T08:22:18.354Z,4.30
2023-10-05T08:24:45.324Z,5.10
2023-10-05T08:27:14.852Z,4.90
2023-10-05T08:29:42.826Z,3.40
2023-10-05T08:32:14.229Z,4.10
2023-10-05T08:37:09.655Z,5.50
2023-10-05T08:39:37.989Z,5.20
2023-10-05T08:42:08.221Z,3.00
2023-10-05T08:44:44.788Z,3.10
2023-10-05T08:47:13.211Z,3.80
2023-10-05T08:49:43.821Z,5.60
2023-10-05T08:52:19.765Z,4.00
2023-10-05T08:54:47.464Z,5.50
2023-10-05T08:57:15.141Z,7.70
2023-10-05T08:59:48.170Z,5.30
2023-10-05T09:02:22.543Z,4.90
2023-10-05T09:04:58.700Z,3.00
2023-10-05T09:07:35.485Z,7.50
2023-10-05T09:10:05.957Z,4.50
2023-10-05T09:12:36.437Z,3.70
2023-10-05T09:15:24.850Z,4.10
2023-10-05T09:18:06.664Z,4.80
2023-10-05T09:20:38.749Z,4.20
2023-10-05T09:23:07.194Z,3.70
2023-10-05T09:25:40.665Z,3.30
2023-10-05T09:28:13.297Z,3.50
2023-10-05T09:33:28.926Z,7.40
2023-10-05T09:36:02.582Z,3.60
2023-10-05T09:38:29.545Z,3.80
2023-10-05T09:40:56.567Z,3.00
2023-10-05T09:43:24.080Z,6.00
2023-10-05T09:45:54.377Z,5.10
2023-10-05T09:48:22.004Z,3.50
2023-10-05T09:50:50.150Z,3.70
2023-10-05T09:53:19.792Z,5.10
2023-10-05T09:55:54.012Z,3.00
2023-10-05T09:58:23.555Z,6.10
2023-10-05T10:00:55.923Z,4.10
2023-10-05T10:03:24.976Z,4.10
2023-10-05T10:06:07.809Z,3.60
2023-10-05T10:08:35.360Z,5.30
2023-10-05T10:11:07.820Z,3.40
2023-10-05T10:13:39.503Z,8.70
2023-10-05T10:16:21.943Z,2.90
2023-10-05T10:19:20.046Z,4.50
2023-10-05T10:21:49.096Z,4.10
2023-10-05T10:24:20.960Z,3.20
2023-10-05T10:26:58.520Z,3.80
2023-10-05T10:29:39.448Z,4.40
2023-10-05T10:32:19.343Z,2.60
2023-10-05T10:34:55.956Z,3.80
2023-10-05T10:37:37.107Z,3.70
2023-10-05T10:40:33.549Z,3.50
2023-10-05T10:43:13.684Z,3.40
2023-10-05T10:45:43.389Z,2.60
2023-10-05T10:48:18.133Z,2.70
2023-10-05T10:50:46.526Z,3.90
2023-10-05T10:53:17.123Z,3.40
2023-10-05T10:56:18.143Z,5.70
2023-10-05T10:58:45.228Z,4.50
2023-10-05T11:01:28.884Z,4.20
2023-10-05T11:04:05.159Z,3.20
2023-10-05T11:06:38.161Z,3.80
2023-10-05T11:09:10.731Z,3.00
2023-10-05T11:11:37.955Z,3.30
2023-10-05T11:14:21.900Z,2.50
2023-10-05T11:17:00.393Z,2.50
2023-10-05T11:19:39.625Z,3.20
2023-10-05T11:22:11.836Z,4.70
2023-10-05T11:25:17.802Z,2.60
2023-10-05T11:27:48.978Z,4.00
2023-10-05T11:30:30.806Z,5.60
2023-10-05T11:33:45.865Z,4.80
2023-10-05T11:36:18.081Z,5.80
2023-10-05T11:38:45.687Z,4.20
2023-10-05T11:41:17.065Z,4.20
2023-10-05T11:43:44.880Z,4.80
2023-10-05T11:46:18.306Z,3.50
2023-10-05T11:49:05.789Z,5.80
2023-10-05T11:51:42.892Z,4.50
2023-10-05T11:54:10.225Z,6.40
2023-10-05T11:56:39.395Z,5.10
2023-10-05T11:59:07.995Z,3.80
2023-10-05T12:01:35.365Z,3.80
2023-10-05T12:04:05.125Z,4.90
2023-10-05T12:06:32.262Z,2.70
2023-10-05T12:09:04.677Z,2.80
2023-10-05T12:11:31.586Z,4.10
2023-10-05T12:13:58.505Z,4.80
2023-10-05T12:16:26.177Z,2.90
2023-10-05T12:18:54.779Z,8.60
2023-10-05T12:21:22.021Z,2.80
2023-10-05T12:23:48.960Z,5.10
2023-10-05T12:26:16.053Z,2.10
2023-10-05T12:28:44.382Z,4.00
2023-10-05T12:31:13.244Z,4.00
2023-10-05T12:33:40.073Z,3.30
2023-10-05T12:36:12.860Z,4.70
2023-10-05T12:38:40.163Z,4.20
2023-10-05T12:41:14.205Z,3.80
2023-10-05T12:43:42.384Z,4.20
2023-10-05T12:46:11.499Z,3.90
2023-10-05T12:48:40.035Z,5.10
2023-10-05T12:51:08.622Z,3.20
2023-10-05T12:53:37.142Z,5.60
2023-10-05T12:56:04.638Z,6.00
2023-10-05T12:58:32.955Z,4.50
2023-10-05T13:01:13.264Z,5.00
2023-10-05T13:03:40.266Z,8.50
2023-10-05T13:06:10.898Z,18.10
2023-10-05T13:08:43.898Z,6.50
2023-10-05T13:11:12.504Z,6.70
2023-10-05T13:13:39.888Z,7.00
2023-10-05T13:16:14.144Z,7.50
2023-10-05T13:18:42.983Z,3.20
2023-10-05T13:21:15.102Z,4.00
2023-10-05T13:23:41.894Z,3.00
2023-10-05T13:26:08.696Z,3.60
2023-10-05T13:28:35.537Z,3.20
2023-10-05T13:31:18.983Z,5.00
2023-10-05T13:33:55.464Z,2.90
2023-10-05T13:36:22.243Z,2.90
2023-10-05T13:38:48.986Z,3.60
2023-10-05T13:41:15.756Z,2.40
2023-10-05T13:43:43.055Z,5.80
2023-10-05T13:46:22.890Z,3.50
2023-10-05T13:48:54.480Z,5.80
2023-10-05T13:51:21.716Z,3.30
2023-10-05T13:53:55.156Z,3.90
2023-10-05T13:56:28.642Z,2.80
2023-10-05T13:59:06.952Z,3.10
2023-10-05T14:01:34.956Z,5.40
2023-10-05T14:04:02.043Z,4.50
2023-10-05T14:06:30.248Z,3.10
2023-10-05T14:09:06.203Z,2.90
2023-10-05T14:11:34.266Z,5.70
2023-10-05T14:14:07.667Z,3.30
2023-10-05T14:16:50.820Z,3.40
2023-10-05T14:19:18.680Z,3.90
2023-10-05T14:21:45.565Z,4.10
2023-10-05T14:24:13.910Z,7.30
2023-10-05T14:26:45.319Z,3.90
2023-10-05T14:31:39.933Z,2.80
2023-10-05T14:36:35.492Z,4.00
2023-10-05T14:39:08.037Z,4.20
2023-10-05T14:41:34.944Z,2.80
2023-10-05T14:44:05.144Z,2.50
2023-10-05T14:46:34.149Z,3.30
2023-10-05T14:49:00.954Z,3.30
2023-10-05T14:51:28.218Z,5.30
2023-10-05T14:53:55.492Z,4.20
2023-10-05T14:56:23.242Z,3.00
2023-10-05T14:58:49.999Z,3.00
2023-10-05T15:01:17.204Z,3.50
2023-10-05T15:03:45.756Z,2.60
2023-10-05T15:06:14.029Z,6.00
2023-10-05T15:08:40.837Z,2.90
2023-10-05T15:11:09.427Z,2.20
2023-10-05T15:13:36.825Z,6.60
2023-10-05T15:16:06.325Z,3.50
2023-10-05T15:18:35.587Z,3.50
2023-10-05T15:21:03.529Z,4.30
2023-10-05T15:23:30.412Z,2.50
2023-10-05T15:25:57.618Z,4.60
2023-10-05T15:28:25.068Z,2.70
2023-10-05T15:30:52.006Z,4.00
2023-10-05T15:33:18.869Z,2.70
2023-10-05T15:35:46.150Z,4.30
2023-10-05T15:38:12.900Z,3.90
2023-10-05T15:40:39.602Z,3.80
2023-10-05T15:43:06.417Z,4.20
2023-10-05T15:45:35.248Z,2.70
2023-10-05T15:48:09.460Z,3.80
2023-10-05T15:50:46.094Z,4.20
2023-10-05T15:53:12.846Z,3.40
2023-10-05T15:55:39.695Z,4.80
2023-10-05T15:58:10.436Z,4.50
2023-10-05T16:00:37.548Z,3.30
2023-10-05T16:03:05.030Z,2.60
2023-10-05T16:05:36.330Z,3.60
2023-10-05T16:08:06.517Z,3.50
2023-10-05T16:10:34.409Z,2.20
2023-10-05T16:13:01.422Z,2.90
2023-10-05T16:15:28.268Z,5.20
2023-10-05T16:17:55.251Z,5.40
2023-10-05T16:20:26.474Z,4.10
2023-10-05T16:22:58.875Z,2.20
2023-10-05T16:25:27.356Z,2.80
2023-10-05T16:27:54.646Z,3.40
2023-10-05T16:30:22.290Z,3.40
2023-10-05T16:32:55.373Z,3.30
2023-10-05T16:35:23.363Z,3.70
2023-10-05T16:37:50.405Z,3.10
2023-10-05T16:40:20.569Z,4.20
2023-10-05T16:42:48.883Z,3.70
2023-10-05T16:45:19.330Z,4.40
2023-10-05T16:47:47.024Z,2.60
2023-10-05T16:50:15.411Z,4.40
2023-10-05T16:52:43.784Z,4.80
2023-10-05T16:55:11.426Z,4.80
2023-10-05T16:57:41.336Z,3.30
2023-10-05T17:00:16.701Z,3.50
2023-10-05T17:02:47.098Z,4.70
2023-10-05T17:05:14.134Z,3.80
2023-10-05T17:07:41.424Z,2.30
2023-10-05T17:10:08.679Z,3.60
2023-10-05T17:12:35.657Z,3.60
2023-10-05T17:15:03.105Z,2.60
2023-10-05T17:17:30.123Z,3.00
2023-10-05T17:19:57.478Z,4.60
2023-10-05T17:22:26.084Z,3.80
2023-10-05T17:24:56.936Z,3.40
2023-10-05T17:27:24.481Z,2.50
2023-10-05T17:29:51.974Z,3.00
2023-10-05T17:32:19.330Z,4.80
2023-10-05T17:34:49.302Z,3.40
2023-10-05T17:37:19.483Z,2.60
2023-10-05T17:39:46.496Z,3.90
2023-10-05T17:42:14.004Z,4.80
2023-10-05T17:44:41.326Z,5.10
2023-10-05T17:47:09.865Z,4.10
2023-10-05T17:49:40.018Z,5.10
2023-10-05T17:52:08.168Z,3.40
2023-10-05T17:54:35.177Z,3.80
2023-10-05T17:57:03.911Z,5.50
2023-10-05T17:59:31.243Z,4.80
2023-10-05T18:01:58.154Z,4.70
2023-10-05T18:04:25.878Z,3.10
2023-10-05T18:06:52.786Z,4.10
2023-10-05T18:09:19.697Z,3.90
2023-10-05T18:11:48.983Z,6.30
2023-10-05T18:14:16.238Z,5.30
2023-10-05T18:16:47.051Z,3.40
2023-10-05T18:19:14.637Z,3.80
2023-10-05T18:21:41.517Z,3.20
2023-10-05T18:24:11.201Z,3.00
2023-10-05T18:26:37.949Z,3.80
2023-10-05T18:29:04.913Z,5.50
2023-10-05T18:31:33.340Z,3.20
2023-10-05T18:34:00.488Z,4.30
2023-10-05T18:36:27.282Z,6.40
2023-10-05T18:38:54.182Z,2.60
2023-10-05T18:41:21.309Z,7.90
2023-10-05T18:43:48.677Z,3.50
2023-10-05T18:46:16.221Z,2.80
2023-10-05T18:48:43.216Z,2.40
2023-10-05T18:51:10.223Z,4.40
2023-10-05T18:53:37.963Z,3.90
2023-10-05T18:56:05.436Z,4.20
2023-10-05T18:58:32.695Z,3.60
2023-10-05T19:01:02.463Z,5.60
2023-10-05T19:03:33.394Z,5.00
2023-10-05T19:06:00.418Z,3.90
2023-10-05T19:08:27.356Z,3.90
2023-10-05T19:10:54.434Z,4.30
2023-10-05T19:13:21.568Z,5.70
2023-10-05T19:15:48.582Z,5.00
2023-10-05T19:18:15.681Z,3.70
2023-10-05T19:20:42.526Z,7.60
2023-10-05T19:23:09.933Z,3.40
2023-10-05T19:25:39.942Z,5.00
2023-10-05T19:28:07.448Z,2.70
2023-10-05T19:30:38.333Z,6.20
2023-10-05T19:33:05.123Z,3.60
2023-10-05T19:35:32.329Z,4.00
2023-10-05T19:38:00.262Z,4.50
2023-10-05T19:40:27.375Z,3.70
2023-10-05T19:42:56.044Z,2.90
2023-10-05T19:45:23.166Z,3.50
2023-10-05T19:47:50.266Z,4.20
2023-10-05T19:50:17.033Z,3.60
2023-10-05T19:52:43.850Z,6.10
2023-10-05T19:55:14.275Z,3.50
2023-10-05T19:57:41.211Z,4.20
2023-10-05T20:00:12.329Z,3.60
2023-10-05T20:02:40.238Z,4.10
2023-10-05T20:05:07.617Z,3.40
2023-10-05T20:07:34.656Z,4.40
2023-10-05T20:10:01.925Z,4.60
2023-10-05T20:12:28.906Z,4.10
2023-10-05T20:14:55.736Z,5.00
2023-10-05T20:17:22.693Z,7.00
2023-10-05T20:19:51.876Z,5.00
2023-10-05T20:22:18.668Z,3.90
2023-10-05T20:24:45.413Z,6.40
2023-10-05T20:27:16.074Z,5.00
2023-10-05T20:29:43.561Z,3.00
2023-10-05T20:32:13.471Z,5.80
2023-10-05T20:34:42.880Z,4.30
2023-10-05T20:37:10.305Z,2.80
2023-10-05T20:39:37.166Z,3.60
2023-10-05T20:42:04.574Z,4.20
2023-10-05T20:44:31.664Z,3.70
2023-10-05T20:47:01.690Z,5.50
2023-10-05T20:49:34.290Z,4.00
2023-10-05T20:52:01.303Z,3.20
2023-10-05T20:54:28.193Z,2.90
2023-10-05T20:56:55.088Z,4.10
2023-10-05T20:59:27.032Z,3.60
2023-10-05T21:01:53.992Z,4.00
2023-10-05T21:04:20.728Z,4.10
2023-10-05T21:06:47.471Z,4.00
2023-10-05T21:09:14.295Z,5.60
2023-10-05T21:11:41.256Z,5.20
2023-10-05T21:14:10.436Z,4.50
2023-10-05T21:16:37.240Z,3.30
2023-10-05T21:19:05.513Z,3.30
2023-10-05T21:21:32.277Z,3.80
2023-10-05T21:23:59.121Z,6.30
2023-10-05T21:26:26.006Z,4.20
2023-10-05T21:28:53.566Z,5.40
2023-10-05T21:31:20.354Z,3.50
2023-10-05T21:33:47.128Z,6.40
2023-10-05T21:36:14.424Z,3.50
2023-10-05T21:38:41.266Z,4.00
2023-10-05T21:41:08.197Z,5.50
2023-10-05T21:43:34.991Z,7.40
2023-10-05T21:46:01.913Z,3.80
2023-10-05T21:48:28.721Z,6.10
2023-10-05T21:50:56.060Z,3.20
2023-10-05T21:53:23.395Z,3.40
2023-10-05T21:55:50.212Z,3.30
2023-10-05T21:58:17.078Z,6.90
2023-10-05T22:00:43.873Z,6.40
2023-10-05T22:03:10.876Z,3.10
2023-10-05T22:05:38.336Z,4.10
2023-10-05T22:08:08.780Z,5.10
2023-10-05T22:10:38.489Z,8.90
2023-10-05T22:13:05.934Z,3.40
2023-10-05T22:15:32.962Z,4.60
2023-10-05T22:18:00.888Z,3.50
2023-10-05T22:20:28.931Z,6.00
2023-10-05T22:22:55.889Z,3.50
2023-10-05T22:25:23.335Z,5.10
2023-10-05T22:27:53.354Z,5.70
2023-10-05T22:30:20.156Z,6.10
2023-10-05T22:32:47.437Z,5.50
2023-10-05T22:35:14.601Z,5.40
2023-10-05T22:37:41.371Z,5.40
2023-10-05T22:40:09.261Z,5.30
2023-10-05T22:42:36.198Z,5.70
2023-10-05T22:45:03.542Z,4.80
2023-10-05T22:47:30.645Z,4.30
2023-10-05T22:50:01.387Z,5.80
2023-10-05T22:52:28.544Z,3.90
2023-10-05T22:54:58.083Z,10.20
2023-10-05T22:57:26.302Z,4.20
2023-10-05T22:59:53.115Z,3.70
2023-10-05T23:02:19.960Z,3.10
2023-10-05T23:04:47.324Z,3.50
2023-10-05T23:07:14.064Z,4.80
2023-10-05T23:09:40.959Z,3.30
2023-10-05T23:12:11.785Z,3.40
2023-10-05T23:14:39.170Z,4.70
2023-10-05T23:17:07.324Z,5.30
2023-10-05T23:19:35.180Z,4.00
2023-10-05T23:22:03.146Z,3.50
2023-10-05T23:24:31.404Z,4.20
2023-10-05T23:27:00.015Z,3.10
2023-10-05T23:29:29.482Z,4.90
2023-10-05T23:31:57.579Z,4.70
2023-10-05T23:34:25.577Z,5.60
2023-10-05T23:36:55.002Z,5.40
2023-10-05T23:39:24.570Z,3.80
2023-10-05T23:41:52.611Z,4.40
2023-10-05T23:44:22.132Z,3.70
2023-10-05T23:47:14.948Z,3.50
2023-10-05T23:49:45.072Z,4.00
2023-10-05T23:52:13.804Z,4.60
2023-10-05T23:54:43.517Z,3.80
2023-10-05T23:57:20.787Z,3.30
2023-10-05T23:59:47.929Z,4.10
